createdAt,value
2019-03-27T00:00:58.649Z,59.52
2019-03-27T00:02:04.657Z,59.58
2019-03-27T00:03:10.329Z,59.64
2019-03-27T00:04:15.897Z,59.69
2019-03-27T00:05:22.309Z,59.76
2019-03-27T00:06:27.904Z,59.82
2019-03-27T00:07:33.451Z,59.85
2019-03-27T00:08:39.087Z,59.90
2019-03-27T00:09:44.761Z,59.94
2019-03-27T00:10:50.381Z,59.99
2019-03-27T00:11:56.235Z,60.02
2019-03-27T00:13:01.936Z,60.10
2019-03-27T00:14:07.508Z,60.16
2019-03-27T00:15:13.954Z,60.23
2019-03-27T00:16:19.563Z,60.27
2019-03-27T00:17:25.105Z,60.29
2019-03-27T00:18:31.492Z,60.32
2019-03-27T00:19:37.413Z,60.36
2019-03-27T00:20:44.604Z,60.42
2019-03-27T00:21:50.549Z,60.58
2019-03-27T00:22:56.187Z,60.45
2019-03-27T00:24:02.299Z,60.49
2019-03-27T00:25:08.411Z,60.50
2019-03-27T00:26:14.079Z,60.52
2019-03-27T00:27:19.658Z,60.53
2019-03-27T00:28:25.247Z,60.54
2019-03-27T00:29:30.900Z,60.58
2019-03-27T00:30:36.790Z,60.61
2019-03-27T00:31:42.496Z,60.66
2019-03-27T00:32:48.109Z,60.68
2019-03-27T00:33:53.747Z,60.66
2019-03-27T00:34:59.491Z,60.67
2019-03-27T00:36:05.160Z,60.70
2019-03-27T00:37:11.264Z,60.71
2019-03-27T00:38:16.877Z,60.73
2019-03-27T00:39:22.881Z,60.78
2019-03-27T00:40:28.463Z,60.83
2019-03-27T00:41:34.742Z,60.88
2019-03-27T00:42:40.402Z,60.93
2019-03-27T00:43:46.058Z,60.99
2019-03-27T00:44:51.665Z,60.99
2019-03-27T00:45:57.326Z,61.04
2019-03-27T00:47:03.047Z,61.08
2019-03-27T00:48:08.764Z,61.11
2019-03-27T00:49:14.362Z,61.17
2019-03-27T00:50:20.646Z,61.22
2019-03-27T00:51:26.649Z,61.26
2019-03-27T00:52:32.167Z,61.28
2019-03-27T00:53:37.785Z,61.29
2019-03-27T00:54:43.482Z,61.29
2019-03-27T00:55:49.120Z,61.33
2019-03-27T00:56:54.640Z,61.32
2019-03-27T00:58:00.291Z,61.37
2019-03-27T00:59:06.257Z,61.37
2019-03-27T01:00:22.210Z,61.40
2019-03-27T01:01:27.793Z,61.42
2019-03-27T01:02:33.425Z,61.44
2019-03-27T01:03:39.071Z,61.48
2019-03-27T01:04:45.031Z,61.51
2019-03-27T01:05:50.643Z,61.56
2019-03-27T01:06:56.341Z,61.60
2019-03-27T01:08:01.931Z,61.65
2019-03-27T01:09:07.609Z,61.70
2019-03-27T01:10:13.398Z,61.79
2019-03-27T01:11:19.201Z,61.85
2019-03-27T01:12:24.870Z,61.92
2019-03-27T01:13:30.528Z,61.97
2019-03-27T01:14:36.272Z,62.04
2019-03-27T01:15:41.831Z,62.11
2019-03-27T01:16:47.504Z,62.17
2019-03-27T01:17:53.103Z,62.23
2019-03-27T01:18:58.689Z,62.30
2019-03-27T01:20:04.672Z,62.31
2019-03-27T01:21:10.437Z,62.33
2019-03-27T01:22:16.041Z,62.35
2019-03-27T01:23:21.755Z,62.19
2019-03-27T01:24:27.786Z,62.42
2019-03-27T01:25:33.361Z,62.44
2019-03-27T01:26:39.053Z,62.49
2019-03-27T01:27:44.610Z,62.52
2019-03-27T01:28:50.240Z,62.55
2019-03-27T01:29:56.107Z,62.55
2019-03-27T01:31:07.190Z,62.57
2019-03-27T01:32:10.383Z,62.59
2019-03-27T01:33:17.216Z,62.62
2019-03-27T01:34:22.957Z,62.63
2019-03-27T01:35:28.792Z,62.69
2019-03-27T01:36:34.431Z,62.74
2019-03-27T01:37:40.542Z,62.74
2019-03-27T01:38:46.613Z,62.69
2019-03-27T01:39:52.228Z,62.77
2019-03-27T01:40:57.974Z,62.80
2019-03-27T01:42:03.707Z,62.84
2019-03-27T01:43:09.736Z,62.85
2019-03-27T01:44:15.411Z,62.88
2019-03-27T01:45:20.959Z,62.91
2019-03-27T01:46:26.556Z,62.92
2019-03-27T01:47:32.223Z,62.97
2019-03-27T01:48:38.193Z,62.83
2019-03-27T01:49:43.892Z,63.10
2019-03-27T01:50:49.596Z,63.13
2019-03-27T01:51:55.543Z,63.18
2019-03-27T01:53:01.208Z,63.24
2019-03-27T01:54:06.783Z,63.30
2019-03-27T01:55:12.524Z,63.36
2019-03-27T01:56:18.122Z,63.45
2019-03-27T01:57:23.796Z,63.25
2019-03-27T01:58:29.752Z,63.57
2019-03-27T02:01:53.274Z,63.64
2019-03-27T02:02:59.094Z,63.61
2019-03-27T02:04:04.628Z,63.70
2019-03-27T02:05:10.993Z,63.77
2019-03-27T02:06:16.584Z,63.87
2019-03-27T02:07:22.298Z,63.95
2019-03-27T02:08:27.896Z,64.08
2019-03-27T02:09:33.778Z,64.17
2019-03-27T02:10:39.838Z,64.23
2019-03-27T02:11:45.361Z,64.31
2019-03-27T02:12:51.280Z,64.40
2019-03-27T02:13:56.954Z,64.49
2019-03-27T02:15:02.595Z,64.88
2019-03-27T02:16:08.239Z,64.88
2019-03-27T02:17:13.798Z,64.64
2019-03-27T02:18:19.307Z,64.66
2019-03-27T02:19:24.842Z,64.74
2019-03-27T02:20:30.484Z,64.81
2019-03-27T02:21:36.075Z,64.84
2019-03-27T02:22:42.332Z,64.91
2019-03-27T02:23:47.844Z,64.96
2019-03-27T02:24:53.674Z,65.00
2019-03-27T02:25:59.673Z,65.11
2019-03-27T02:27:05.287Z,65.06
2019-03-27T02:28:11.365Z,65.13
2019-03-27T02:29:16.918Z,65.18
2019-03-27T02:30:22.502Z,65.28
2019-03-27T02:31:28.554Z,65.48
2019-03-27T02:32:34.147Z,65.48
2019-03-27T02:33:40.071Z,65.13
2019-03-27T02:34:45.753Z,65.13
2019-03-27T02:35:51.400Z,65.58
2019-03-27T02:36:57.635Z,65.66
2019-03-27T02:38:03.259Z,65.74
2019-03-27T02:39:08.892Z,65.85
2019-03-27T02:40:14.834Z,65.85
2019-03-27T02:41:20.385Z,65.98
2019-03-27T02:42:26.346Z,66.22
2019-03-27T02:43:31.882Z,66.22
2019-03-27T02:44:37.713Z,66.18
2019-03-27T02:45:43.316Z,66.53
2019-03-27T02:46:48.773Z,66.53
2019-03-27T02:47:54.275Z,66.38
2019-03-27T02:48:59.787Z,66.47
2019-03-27T02:50:05.680Z,66.52
2019-03-27T02:51:11.227Z,66.60
2019-03-27T02:52:17.132Z,66.71
2019-03-27T02:53:22.906Z,66.76
2019-03-27T02:54:28.402Z,66.78
2019-03-27T02:55:36.466Z,66.78
2019-03-27T02:56:41.970Z,66.95
2019-03-27T02:57:47.952Z,67.06
2019-03-27T02:58:53.446Z,67.11
2019-03-27T02:59:59.424Z,67.19
2019-03-27T03:01:05.429Z,67.23
2019-03-27T03:02:10.934Z,67.29
2019-03-27T03:03:16.586Z,67.29
2019-03-27T03:04:22.060Z,67.41
2019-03-27T03:05:27.630Z,67.48
2019-03-27T03:06:33.237Z,67.55
2019-03-27T03:07:38.877Z,67.62
2019-03-27T03:08:44.420Z,67.62
2019-03-27T03:09:50.225Z,67.72
2019-03-27T03:10:55.755Z,67.80
2019-03-27T03:12:01.338Z,67.59
2019-03-27T03:13:06.957Z,67.87
2019-03-27T03:14:12.554Z,67.93
2019-03-27T03:15:22.591Z,68.00
2019-03-27T03:16:41.343Z,68.03
2019-03-27T03:17:36.313Z,68.07
2019-03-27T03:18:41.913Z,68.11
2019-03-27T03:19:47.742Z,68.11
2019-03-27T03:20:53.350Z,68.21
2019-03-27T03:21:59.279Z,68.26
2019-03-27T03:23:05.151Z,68.34
2019-03-27T03:24:10.819Z,68.39
2019-03-27T03:25:16.707Z,68.44
2019-03-27T03:26:22.226Z,68.50
2019-03-27T03:27:27.834Z,68.54
2019-03-27T03:28:33.424Z,68.57
2019-03-27T03:29:39.314Z,68.64
2019-03-27T03:30:44.890Z,68.68
2019-03-27T03:31:50.549Z,68.74
2019-03-27T03:32:56.304Z,68.78
2019-03-27T03:34:02.200Z,68.87
2019-03-27T03:35:08.028Z,68.94
2019-03-27T03:36:13.713Z,69.02
2019-03-27T03:37:19.567Z,69.11
2019-03-27T03:38:25.156Z,69.15
2019-03-27T03:39:30.727Z,69.20
2019-03-27T03:40:36.359Z,69.75
2019-03-27T03:41:42.108Z,69.75
2019-03-27T03:42:47.628Z,69.36
2019-03-27T03:43:53.553Z,69.43
2019-03-27T03:44:59.153Z,69.48
2019-03-27T03:46:04.986Z,69.54
2019-03-27T03:47:12.643Z,69.58
2019-03-27T03:48:18.257Z,69.65
2019-03-27T03:49:23.695Z,69.71
2019-03-27T03:50:47.484Z,69.77
2019-03-27T03:51:56.561Z,69.83
2019-03-27T03:53:02.633Z,69.88
2019-03-27T03:54:08.593Z,69.91
2019-03-27T03:55:14.176Z,70.26
2019-03-27T03:56:21.997Z,70.03
2019-03-27T03:57:30.000Z,70.05
2019-03-27T03:58:37.591Z,70.06
2019-03-27T03:59:44.086Z,70.06
2019-03-27T04:00:50.407Z,70.09
2019-03-27T04:01:56.123Z,70.13
2019-03-27T04:03:03.814Z,70.15
2019-03-27T04:04:11.074Z,70.19
2019-03-27T04:05:19.972Z,70.23
2019-03-27T04:06:25.641Z,70.31
2019-03-27T04:07:31.332Z,70.37
2019-03-27T04:08:36.944Z,70.46
2019-03-27T04:09:42.525Z,70.52
2019-03-27T04:10:48.635Z,70.60
2019-03-27T04:11:54.099Z,70.67
2019-03-27T04:12:59.690Z,70.75
2019-03-27T04:14:05.765Z,70.83
2019-03-27T04:15:11.736Z,70.88
2019-03-27T04:16:17.274Z,70.92
2019-03-27T04:17:22.906Z,70.94
2019-03-27T04:18:28.521Z,71.01
2019-03-27T04:19:34.030Z,71.03
2019-03-27T04:20:39.891Z,71.05
2019-03-27T04:21:45.795Z,71.08
2019-03-27T04:22:51.646Z,71.09
2019-03-27T04:23:57.191Z,71.13
2019-03-27T04:25:03.179Z,71.14
2019-03-27T04:26:10.791Z,71.19
2019-03-27T04:27:16.239Z,71.25
2019-03-27T04:28:21.904Z,71.28
2019-03-27T04:29:29.662Z,71.28
2019-03-27T04:30:35.401Z,71.31
2019-03-27T04:31:41.236Z,71.34
2019-03-27T04:32:47.326Z,71.33
2019-03-27T04:33:52.824Z,71.31
2019-03-27T04:34:58.357Z,71.27
2019-03-27T04:36:03.935Z,71.24
2019-03-27T04:37:09.907Z,71.19
2019-03-27T04:38:15.445Z,71.13
2019-03-27T04:39:21.322Z,71.13
2019-03-27T04:40:27.010Z,71.15
2019-03-27T04:41:32.616Z,71.15
2019-03-27T04:42:38.112Z,71.13
2019-03-27T04:43:43.710Z,71.14
2019-03-27T04:44:49.291Z,71.14
2019-03-27T04:45:54.905Z,71.13
2019-03-27T04:47:00.396Z,71.12
2019-03-27T04:48:06.043Z,71.10
2019-03-27T04:49:11.711Z,71.08
2019-03-27T04:50:17.211Z,71.05
2019-03-27T04:51:23.037Z,71.01
2019-03-27T04:52:28.499Z,71.03
2019-03-27T04:53:34.052Z,70.99
2019-03-27T04:54:39.925Z,71.03
2019-03-27T04:55:45.461Z,71.03
2019-03-27T04:56:51.057Z,71.01
2019-03-27T04:57:56.672Z,71.01
2019-03-27T04:59:02.423Z,71.04
2019-03-27T05:00:08.499Z,71.07
2019-03-27T05:01:14.268Z,71.08
2019-03-27T05:02:19.936Z,71.12
2019-03-27T05:03:25.761Z,71.13
2019-03-27T05:04:31.855Z,71.11
2019-03-27T05:05:37.439Z,71.08
2019-03-27T05:06:43.075Z,71.06
2019-03-27T05:07:48.714Z,71.03
2019-03-27T05:08:54.377Z,71.14
2019-03-27T05:09:59.981Z,71.14
2019-03-27T05:11:05.860Z,71.01
2019-03-27T05:12:11.417Z,71.00
2019-03-27T05:13:17.073Z,70.99
2019-03-27T05:14:22.980Z,70.99
2019-03-27T05:15:28.575Z,71.01
2019-03-27T05:16:34.206Z,71.04
2019-03-27T05:17:45.956Z,71.09
2019-03-27T05:18:46.963Z,71.09
2019-03-27T05:19:52.487Z,71.14
2019-03-27T05:20:58.361Z,71.16
2019-03-27T05:22:04.021Z,71.20
2019-03-27T05:23:09.565Z,71.21
2019-03-27T05:24:15.144Z,71.30
2019-03-27T05:25:20.727Z,71.32
2019-03-27T05:26:28.724Z,71.36
2019-03-27T05:27:36.336Z,71.39
2019-03-27T05:28:42.339Z,71.42
2019-03-27T05:29:48.260Z,71.49
2019-03-27T05:30:53.941Z,71.55
2019-03-27T05:31:59.604Z,71.62
2019-03-27T05:33:05.179Z,71.68
2019-03-27T05:34:10.792Z,71.73
2019-03-27T05:35:16.433Z,71.79
2019-03-27T05:36:22.107Z,71.84
2019-03-27T05:37:28.104Z,71.92
2019-03-27T05:38:33.585Z,72.02
2019-03-27T05:39:39.520Z,72.08
2019-03-27T05:40:45.473Z,72.19
2019-03-27T05:41:51.396Z,72.27
2019-03-27T05:43:01.083Z,72.36
2019-03-27T05:44:04.671Z,72.44
2019-03-27T05:45:16.491Z,72.48
2019-03-27T05:46:22.431Z,72.51
2019-03-27T05:47:28.201Z,72.55
2019-03-27T05:48:34.149Z,72.59
2019-03-27T05:49:40.033Z,72.58
2019-03-27T05:50:45.604Z,72.62
2019-03-27T05:51:51.184Z,72.59
2019-03-27T05:52:57.150Z,72.60
2019-03-27T05:54:02.750Z,72.57
2019-03-27T05:55:09.022Z,72.55
2019-03-27T05:56:14.614Z,72.54
2019-03-27T05:57:20.231Z,72.52
2019-03-27T05:58:25.954Z,72.47
2019-03-27T05:59:31.640Z,72.43
2019-03-27T06:00:37.133Z,72.47
2019-03-27T06:01:42.778Z,72.45
2019-03-27T06:02:48.716Z,72.49
2019-03-27T06:03:54.283Z,72.49
2019-03-27T06:05:00.601Z,72.42
2019-03-27T06:06:06.205Z,72.38
2019-03-27T06:07:12.037Z,72.42
2019-03-27T06:08:17.931Z,72.53
2019-03-27T06:09:23.953Z,72.39
2019-03-27T06:10:29.919Z,72.36
2019-03-27T06:11:35.825Z,72.33
2019-03-27T06:12:41.719Z,72.31
2019-03-27T06:13:47.622Z,72.08
2019-03-27T06:14:53.205Z,72.28
2019-03-27T06:15:58.686Z,72.28
2019-03-27T06:17:04.797Z,72.25
2019-03-27T06:18:13.348Z,72.23
2019-03-27T06:19:18.114Z,72.20
2019-03-27T06:20:24.599Z,72.17
2019-03-27T06:21:30.412Z,72.14
2019-03-27T06:22:36.029Z,72.15
2019-03-27T06:23:41.950Z,72.19
2019-03-27T06:24:47.483Z,72.23
2019-03-27T06:25:53.278Z,72.26
2019-03-27T06:26:58.766Z,72.28
2019-03-27T06:28:04.365Z,72.28
2019-03-27T06:29:09.864Z,72.33
2019-03-27T06:30:15.644Z,72.36
2019-03-27T06:31:21.213Z,72.33
2019-03-27T06:32:26.997Z,72.36
2019-03-27T06:33:32.915Z,72.29
2019-03-27T06:34:39.151Z,72.31
2019-03-27T06:35:44.826Z,72.34
2019-03-27T06:36:50.775Z,72.30
2019-03-27T06:37:56.587Z,72.24
2019-03-27T06:39:02.174Z,72.23
2019-03-27T06:40:08.959Z,72.21
2019-03-27T06:41:14.501Z,72.13
2019-03-27T06:42:20.172Z,72.09
2019-03-27T06:43:26.390Z,72.08
2019-03-27T06:44:32.096Z,72.06
2019-03-27T06:45:37.679Z,72.06
2019-03-27T06:46:43.237Z,72.07
2019-03-27T06:47:49.163Z,72.10
2019-03-27T06:48:55.102Z,72.09
2019-03-27T06:50:01.119Z,72.18
2019-03-27T06:51:07.236Z,72.20
2019-03-27T06:52:13.576Z,72.29
2019-03-27T06:53:19.213Z,72.29
2019-03-27T06:54:25.081Z,72.38
2019-03-27T06:55:30.620Z,72.46
2019-03-27T06:56:36.375Z,72.55
2019-03-27T06:57:43.123Z,72.55
2019-03-27T06:58:54.755Z,72.52
2019-03-27T06:59:56.774Z,72.48
2019-03-27T07:01:02.358Z,72.47
2019-03-27T07:02:07.965Z,72.39
2019-03-27T07:03:13.593Z,72.43
2019-03-27T07:04:19.578Z,72.38
2019-03-27T07:05:25.271Z,72.39
2019-03-27T07:06:30.704Z,72.46
2019-03-27T07:07:36.362Z,72.46
2019-03-27T07:08:41.958Z,72.54
2019-03-27T07:09:47.417Z,72.55
2019-03-27T07:10:53.243Z,72.55
2019-03-27T07:11:59.160Z,72.57
2019-03-27T07:13:04.922Z,72.53
2019-03-27T07:14:11.101Z,72.45
2019-03-27T07:15:16.766Z,72.38
2019-03-27T07:16:22.351Z,72.36
2019-03-27T07:17:28.021Z,72.40
2019-03-27T07:18:40.009Z,72.38
2019-03-27T07:19:40.908Z,72.35
2019-03-27T07:20:46.679Z,72.31
2019-03-27T07:21:52.991Z,71.79
2019-03-27T07:22:58.591Z,71.79
2019-03-27T07:24:04.599Z,72.07
2019-03-27T07:25:12.070Z,71.99
2019-03-27T07:26:17.945Z,71.90
2019-03-27T07:27:23.519Z,71.63
2019-03-27T07:28:29.120Z,71.63
2019-03-27T07:29:34.617Z,71.62
2019-03-27T07:30:40.175Z,71.63
2019-03-27T07:31:45.751Z,71.57
2019-03-27T07:32:51.295Z,71.50
2019-03-27T07:33:57.224Z,71.33
2019-03-27T07:35:02.897Z,71.12
2019-03-27T07:36:08.466Z,71.01
2019-03-27T07:37:14.904Z,70.75
2019-03-27T07:38:21.003Z,70.78
2019-03-27T07:39:27.374Z,70.66
2019-03-27T07:40:33.085Z,70.53
2019-03-27T07:41:39.014Z,70.38
2019-03-27T07:42:44.863Z,70.27
2019-03-27T07:43:50.430Z,69.53
2019-03-27T07:44:56.034Z,69.53
2019-03-27T07:46:01.687Z,69.91
2019-03-27T07:47:08.920Z,69.79
2019-03-27T07:48:14.471Z,70.10
2019-03-27T07:49:20.064Z,70.10
2019-03-27T07:50:25.779Z,69.59
2019-03-27T07:51:31.463Z,69.46
2019-03-27T07:52:37.351Z,69.46
2019-03-27T07:53:42.958Z,69.28
2019-03-27T07:54:48.617Z,69.30
2019-03-27T07:55:54.221Z,69.33
2019-03-27T07:57:00.124Z,69.34
2019-03-27T07:58:06.059Z,69.35
2019-03-27T07:59:11.588Z,69.37
2019-03-27T08:00:18.147Z,69.36
2019-03-27T08:01:23.760Z,69.37
2019-03-27T08:02:30.095Z,69.38
2019-03-27T08:03:35.680Z,69.41
2019-03-27T08:04:41.707Z,69.38
2019-03-27T08:05:47.208Z,69.24
2019-03-27T08:06:53.067Z,69.12
2019-03-27T08:07:58.637Z,69.16
2019-03-27T08:09:05.135Z,69.24
2019-03-27T08:10:10.981Z,69.24
2019-03-27T08:11:16.821Z,69.30
2019-03-27T08:12:22.303Z,69.28
2019-03-27T08:13:27.951Z,69.25
2019-03-27T08:14:33.580Z,69.17
2019-03-27T08:15:40.826Z,69.17
2019-03-27T08:16:46.631Z,69.18
2019-03-27T08:17:52.660Z,69.16
2019-03-27T08:19:07.361Z,69.15
2019-03-27T08:20:06.462Z,69.14
2019-03-27T08:21:12.746Z,69.11
2019-03-27T08:22:18.286Z,69.04
2019-03-27T08:23:23.863Z,68.93
2019-03-27T08:24:29.474Z,68.84
2019-03-27T08:25:34.986Z,68.72
2019-03-27T08:26:40.572Z,68.64
2019-03-27T08:27:46.131Z,68.53
2019-03-27T08:28:51.621Z,68.33
2019-03-27T08:29:57.449Z,68.15
2019-03-27T08:31:03.020Z,67.98
2019-03-27T08:32:08.741Z,67.80
2019-03-27T08:33:14.371Z,67.75
2019-03-27T08:34:20.247Z,67.68
2019-03-27T08:35:26.019Z,67.66
2019-03-27T08:36:31.928Z,67.55
2019-03-27T08:37:37.493Z,67.49
2019-03-27T08:38:43.112Z,67.45
2019-03-27T08:39:49.057Z,67.43
2019-03-27T08:40:54.934Z,67.41
2019-03-27T08:42:00.543Z,67.28
2019-03-27T08:43:20.310Z,67.14
2019-03-27T08:44:13.591Z,67.02
2019-03-27T08:45:19.442Z,66.87
2019-03-27T08:46:25.193Z,66.75
2019-03-27T08:47:30.966Z,66.64
2019-03-27T08:48:39.231Z,66.57
2019-03-27T08:49:44.525Z,66.45
2019-03-27T08:50:50.249Z,66.36
2019-03-27T08:51:56.106Z,66.26
2019-03-27T08:53:02.025Z,66.18
2019-03-27T08:54:07.599Z,66.04
2019-03-27T08:55:14.016Z,65.94
2019-03-27T08:56:19.799Z,65.91
2019-03-27T08:57:25.370Z,65.72
2019-03-27T08:58:31.331Z,65.57
2019-03-27T08:59:36.927Z,65.36
2019-03-27T09:00:52.055Z,65.16
2019-03-27T09:01:58.040Z,64.66
2019-03-27T09:03:03.527Z,64.66
2019-03-27T09:04:09.212Z,64.45
2019-03-27T09:05:15.350Z,64.15
2019-03-27T09:06:33.159Z,63.92
2019-03-27T09:07:28.794Z,63.77
2019-03-27T09:08:34.359Z,63.58
2019-03-27T09:09:39.917Z,63.39
2019-03-27T09:10:45.635Z,63.19
2019-03-27T09:11:51.206Z,63.05
2019-03-27T09:12:56.877Z,62.87
2019-03-27T09:14:02.439Z,62.74
2019-03-27T09:15:08.884Z,62.68
2019-03-27T09:16:14.936Z,62.58
2019-03-27T09:17:20.582Z,62.54
2019-03-27T09:18:26.192Z,62.44
2019-03-27T09:19:35.882Z,62.40
2019-03-27T09:20:38.881Z,62.46
2019-03-27T09:21:44.398Z,62.43
2019-03-27T09:22:50.012Z,62.37
2019-03-27T09:23:55.476Z,62.27
2019-03-27T09:25:01.008Z,62.13
2019-03-27T09:26:06.879Z,61.91
2019-03-27T09:27:12.519Z,61.64
2019-03-27T09:28:18.126Z,61.39
2019-03-27T09:29:23.978Z,61.14
2019-03-27T09:30:29.665Z,60.83
2019-03-27T09:31:44.590Z,60.72
2019-03-27T09:32:42.645Z,60.50
2019-03-27T09:33:48.279Z,60.29
2019-03-27T09:34:53.831Z,60.05
2019-03-27T09:35:59.748Z,59.89
2019-03-27T09:37:05.823Z,59.69
2019-03-27T09:38:11.520Z,59.53
2019-03-27T09:39:17.067Z,59.36
2019-03-27T09:40:22.991Z,59.13
2019-03-27T09:41:29.011Z,58.91
2019-03-27T09:42:34.632Z,58.70
2019-03-27T09:43:40.187Z,58.52
2019-03-27T09:44:45.694Z,58.33
2019-03-27T09:45:51.624Z,58.19
2019-03-27T09:46:57.526Z,58.07
2019-03-27T09:48:03.125Z,57.90
2019-03-27T09:49:08.719Z,57.73
2019-03-27T09:50:14.851Z,57.71
2019-03-27T09:51:20.373Z,57.52
2019-03-27T09:52:25.979Z,57.48
2019-03-27T09:53:31.865Z,57.39
2019-03-27T09:54:37.702Z,57.29
2019-03-27T09:55:43.214Z,57.24
2019-03-27T09:56:48.836Z,57.19
2019-03-27T09:57:54.495Z,57.09
2019-03-27T09:59:00.553Z,57.00
2019-03-27T10:00:07.543Z,56.86
2019-03-27T10:01:13.429Z,56.85
2019-03-27T10:02:20.199Z,56.78
2019-03-27T10:03:25.742Z,56.63
2019-03-27T10:04:31.666Z,56.48
2019-03-27T10:05:37.202Z,56.40
2019-03-27T10:06:43.458Z,56.39
2019-03-27T10:07:49.349Z,56.32
2019-03-27T10:08:54.888Z,56.24
2019-03-27T10:10:00.492Z,56.14
2019-03-27T10:11:06.215Z,56.03
2019-03-27T10:12:11.805Z,55.97
2019-03-27T10:13:17.641Z,55.90
2019-03-27T10:14:23.244Z,55.82
2019-03-27T10:15:29.125Z,55.74
2019-03-27T10:16:35.136Z,55.67
2019-03-27T10:17:40.667Z,55.59
2019-03-27T10:18:47.542Z,55.53
2019-03-27T10:20:03.187Z,55.44
2019-03-27T10:21:00.756Z,55.36
2019-03-27T10:22:06.471Z,55.18
2019-03-27T10:23:12.038Z,55.07
2019-03-27T10:24:17.506Z,54.95
2019-03-27T10:25:23.124Z,54.76
2019-03-27T10:26:28.733Z,54.54
2019-03-27T10:27:34.366Z,54.31
2019-03-27T10:28:40.134Z,54.14
2019-03-27T10:29:46.031Z,54.06
2019-03-27T10:30:51.635Z,53.91
2019-03-27T10:31:57.263Z,53.78
2019-03-27T10:33:02.931Z,53.66
2019-03-27T10:34:08.640Z,53.48
2019-03-27T10:35:14.499Z,53.35
2019-03-27T10:36:20.131Z,53.15
2019-03-27T10:37:26.098Z,52.95
2019-03-27T10:38:32.431Z,52.72
2019-03-27T10:39:38.024Z,52.64
2019-03-27T10:40:43.653Z,52.61
2019-03-27T10:41:49.238Z,52.62
2019-03-27T10:42:54.755Z,52.53
2019-03-27T10:44:00.222Z,52.44
2019-03-27T10:45:06.652Z,52.42
2019-03-27T10:46:12.388Z,52.36
2019-03-27T10:47:17.917Z,52.25
2019-03-27T10:48:23.526Z,52.19
2019-03-27T10:49:28.989Z,52.10
2019-03-27T10:50:34.453Z,51.98
2019-03-27T10:51:40.063Z,51.82
2019-03-27T10:52:45.664Z,51.63
2019-03-27T10:53:51.655Z,51.50
2019-03-27T10:54:57.239Z,51.32
2019-03-27T10:56:03.032Z,51.12
2019-03-27T10:57:08.651Z,50.87
2019-03-27T10:58:14.221Z,50.46
2019-03-27T10:59:19.828Z,50.30
2019-03-27T11:00:25.729Z,49.99
2019-03-27T11:01:31.629Z,49.71
2019-03-27T11:02:37.101Z,49.55
2019-03-27T11:03:43.048Z,49.44
2019-03-27T11:04:48.758Z,49.35
2019-03-27T11:05:54.222Z,49.12
2019-03-27T11:07:00.259Z,48.90
2019-03-27T11:08:06.011Z,48.67
2019-03-27T11:09:11.683Z,48.39
2019-03-27T11:10:17.296Z,48.14
2019-03-27T11:11:23.238Z,48.09
2019-03-27T11:12:29.131Z,48.12
2019-03-27T11:13:34.852Z,48.28
2019-03-27T11:14:40.565Z,48.51
2019-03-27T11:15:46.237Z,48.77
2019-03-27T11:16:51.747Z,49.09
2019-03-27T11:17:57.402Z,49.35
2019-03-27T11:19:03.332Z,49.55
2019-03-27T11:20:09.466Z,49.71
2019-03-27T11:21:15.435Z,49.87
2019-03-27T11:22:21.007Z,50.01
2019-03-27T11:23:26.642Z,50.15
2019-03-27T11:24:32.500Z,50.17
2019-03-27T11:25:38.686Z,50.23
2019-03-27T11:26:44.175Z,50.25
2019-03-27T11:27:49.684Z,50.30
2019-03-27T11:28:55.337Z,50.30
2019-03-27T11:30:01.209Z,50.30
2019-03-27T11:31:06.789Z,50.19
2019-03-27T11:32:12.417Z,50.11
2019-03-27T11:33:18.031Z,50.00
2019-03-27T11:34:23.540Z,49.95
2019-03-27T11:35:29.527Z,49.91
2019-03-27T11:36:35.358Z,49.88
2019-03-27T11:37:41.092Z,49.87
2019-03-27T11:38:47.016Z,49.84
2019-03-27T11:39:52.689Z,49.85
2019-03-27T11:40:58.526Z,49.85
2019-03-27T11:42:04.177Z,49.88
2019-03-27T11:43:09.807Z,49.94
2019-03-27T11:44:15.609Z,50.00
2019-03-27T11:45:21.446Z,49.97
2019-03-27T11:46:27.005Z,49.96
2019-03-27T11:47:33.370Z,50.03
2019-03-27T11:48:39.249Z,50.05
2019-03-27T11:49:45.164Z,50.07
2019-03-27T11:50:50.919Z,50.04
2019-03-27T11:51:56.892Z,49.94
2019-03-27T11:53:02.605Z,49.83
2019-03-27T11:54:08.095Z,49.74
2019-03-27T11:55:13.864Z,49.64
2019-03-27T11:56:19.302Z,49.50
2019-03-27T11:57:24.876Z,49.37
2019-03-27T11:58:30.470Z,49.21
2019-03-27T11:59:35.952Z,49.10
2019-03-27T12:00:53.977Z,48.77
2019-03-27T12:01:48.887Z,48.42
2019-03-27T12:02:55.343Z,48.06
2019-03-27T12:04:00.982Z,47.73
2019-03-27T12:05:07.239Z,47.57
2019-03-27T12:06:13.056Z,47.42
2019-03-27T12:07:18.569Z,47.29
2019-03-27T12:08:24.172Z,47.12
2019-03-27T12:09:30.095Z,47.14
2019-03-27T12:10:35.696Z,47.26
2019-03-27T12:11:41.310Z,47.40
2019-03-27T12:12:48.370Z,47.45
2019-03-27T12:13:54.442Z,47.49
2019-03-27T12:15:00.411Z,47.57
2019-03-27T12:16:06.258Z,47.58
2019-03-27T12:17:11.897Z,47.55
2019-03-27T12:18:18.022Z,47.41
2019-03-27T12:19:23.473Z,47.30
2019-03-27T12:20:29.286Z,47.24
2019-03-27T12:21:34.854Z,47.26
2019-03-27T12:22:40.395Z,47.28
2019-03-27T12:23:46.325Z,47.28
2019-03-27T12:24:52.023Z,47.30
2019-03-27T12:25:57.999Z,47.27
2019-03-27T12:27:03.633Z,47.28
2019-03-27T12:28:09.313Z,47.27
2019-03-27T12:29:18.048Z,47.25
2019-03-27T12:30:23.154Z,47.20
2019-03-27T12:31:28.957Z,47.14
2019-03-27T12:32:34.498Z,47.11
2019-03-27T12:33:40.020Z,46.97
2019-03-27T12:34:45.626Z,46.92
2019-03-27T12:35:51.144Z,46.95
2019-03-27T12:36:57.101Z,46.83
2019-03-27T12:38:04.519Z,46.72
2019-03-27T12:39:10.234Z,46.75
2019-03-27T12:40:15.861Z,46.71
2019-03-27T12:41:22.690Z,46.72
2019-03-27T12:42:28.581Z,46.66
2019-03-27T12:43:34.068Z,46.58
2019-03-27T12:44:39.837Z,46.53
2019-03-27T12:45:45.701Z,46.48
2019-03-27T12:46:52.061Z,46.47
2019-03-27T12:47:57.736Z,46.37
2019-03-27T12:49:03.340Z,46.25
2019-03-27T12:50:11.036Z,46.24
2019-03-27T12:51:16.739Z,46.14
2019-03-27T12:52:22.433Z,46.13
2019-03-27T12:53:28.061Z,46.14
2019-03-27T12:54:33.592Z,46.12
2019-03-27T12:55:39.837Z,46.11
2019-03-27T12:56:45.649Z,46.08
2019-03-27T12:57:51.415Z,45.98
2019-03-27T12:58:57.288Z,46.01
2019-03-27T13:00:03.217Z,46.04
2019-03-27T13:01:08.790Z,46.01
2019-03-27T13:02:14.423Z,46.03
2019-03-27T13:03:20.184Z,45.93
2019-03-27T13:04:26.021Z,45.84
2019-03-27T13:05:31.591Z,45.87
2019-03-27T13:06:37.105Z,45.87
2019-03-27T13:07:49.902Z,45.94
2019-03-27T13:08:50.751Z,46.00
2019-03-27T13:09:56.322Z,46.05
2019-03-27T13:11:02.162Z,45.97
2019-03-27T13:12:08.030Z,45.83
2019-03-27T13:13:13.603Z,45.84
2019-03-27T13:14:19.432Z,45.84
2019-03-27T13:15:25.078Z,45.80
2019-03-27T13:16:30.819Z,45.74
2019-03-27T13:17:36.379Z,45.78
2019-03-27T13:18:42.004Z,45.89
2019-03-27T13:19:47.868Z,46.01
2019-03-27T13:20:53.661Z,46.09
2019-03-27T13:21:59.287Z,45.97
2019-03-27T13:23:04.998Z,45.98
2019-03-27T13:24:10.713Z,45.99
2019-03-27T13:25:16.365Z,45.93
2019-03-27T13:26:21.928Z,45.88
2019-03-27T13:27:28.099Z,45.77
2019-03-27T13:28:33.562Z,45.68
2019-03-27T13:29:39.173Z,45.53
2019-03-27T13:30:44.723Z,45.47
2019-03-27T13:31:50.377Z,45.36
2019-03-27T13:32:56.228Z,45.34
2019-03-27T13:34:01.863Z,45.26
2019-03-27T13:35:08.077Z,45.24
2019-03-27T13:36:14.457Z,45.31
2019-03-27T13:37:20.240Z,45.28
2019-03-27T13:38:25.991Z,45.34
2019-03-27T13:39:31.666Z,45.39
2019-03-27T13:40:37.131Z,45.41
2019-03-27T13:41:42.729Z,45.53
2019-03-27T13:42:48.361Z,45.62
2019-03-27T13:43:54.033Z,45.62
2019-03-27T13:44:59.547Z,45.64
2019-03-27T13:46:05.853Z,45.67
2019-03-27T13:47:11.477Z,45.68
2019-03-27T13:48:17.505Z,45.67
2019-03-27T13:49:23.319Z,45.57
2019-03-27T13:50:28.918Z,45.48
2019-03-27T13:51:40.365Z,45.40
2019-03-27T13:52:41.786Z,45.44
2019-03-27T13:53:47.453Z,45.43
2019-03-27T13:54:53.009Z,45.40
2019-03-27T13:55:58.957Z,45.42
2019-03-27T13:57:04.738Z,45.43
2019-03-27T13:58:10.655Z,45.46
2019-03-27T13:59:16.387Z,45.47
2019-03-27T14:00:22.338Z,45.47
2019-03-27T14:01:27.950Z,45.50
2019-03-27T14:02:33.597Z,45.51
2019-03-27T14:03:39.057Z,45.54
2019-03-27T14:04:44.733Z,45.55
2019-03-27T14:05:50.271Z,45.50
2019-03-27T14:06:55.929Z,45.48
2019-03-27T14:08:01.472Z,45.38
2019-03-27T14:09:08.605Z,45.31
2019-03-27T14:10:14.793Z,45.25
2019-03-27T14:11:20.529Z,45.18